Ann Arbor, MI (48103)

4:10 AM EDT on July 06, 2015 (GMT -0400)
Virginia Park | | Change Station
CLOSE
Current Station
Personal Weather Station
Location: Ann Arbor, MI
Elevation: 896 ft
Nearby Weather Stations

Elev 896 ft 42.28 °N, 83.77 °W | Updated 8 seconds ago

Fog
Fog
56.8 °F
Feels Like 56.8 °F
N
0.0
Wind Variable Wind from North
Gusts 0.0 mph

Today
High -- | Low -- °F
--% Chance of Precip.
Yesterday
High -- | Low -- °F
Precip. -- in
6:05 AM 9:14 PM
Waning Gibbous, 77% visible
Pressure 30.07 in
Visibility 0.2 miles
Clouds
Dew Point 57 °F
Humidity 99%
Rainfall 0.00 in
Snow Depth Not available.
UV Not available.
Pollen 1.40 out of 12
Air Quality Not available.
Flu Activity Not available.
METAR KARB 060753Z AUTO 00000KT 1/4SM FG VV003 11/10 A3007 RMK AO2 SLP181 T01060100

More Conditions Fewer Conditions

Pressure 30.07 in
Visibility 0.2 miles
Clouds
Dew Point 57 °F
Humidity 99%
Rainfall 0.00 in
Snow Depth Not available.
UV Not available.
Pollen 1.40 out of 12
Air Quality Not available.
Flu Activity Not available.
METAR KARB 060753Z AUTO 00000KT 1/4SM FG VV003 11/10 A3007 RMK AO2 SLP181 T01060100

More Conditions Fewer Conditions

10-Day Weather Forecast

×

Almanac

Astronomy

Jul. 06, 2015 Rise Set
Actual Time
Civil Twilight
Nautical Twilight
Astronomical Twilight
Moon
Length of Visible Light
Length of Day
Tomorrow will be .
, % of the Moon is Illuminated

Today's Extremes

State Highs State Lows

Community

WunderPhotos

Upload Photos

1,835,509 photos uploaded!

WunderBlogs® & News

Nearby

Air Quality

  Air Quality AQ Index Pollutant
Not available.

Snow Depth

Station Depth Elevation

Earthquake Activity

City Distance Mag. Time & Date
Minimum magnitude displayed is 2.5.

Coastal Water Temperatures

Place Temperature

Stations

Nearby Weather Stations

Station Location Temp. Windchill Dew Point Humidity Wind Precip. Elev Updated Type